LEVC/VLC METAR and TAF weather

Enter ICAO airport designator
Station Type Date Time Source
LEVC METAR 2019/02/20 23:30 UTC NOAA

LEVC 202330Z 28003KT 9999 BKN025 08/06 Q1028 NOSIG


Station Type Date Time Source
LEVC Decoded METAR 2019/02/20 23:30 UTC NOAA

Valencia / Aeropuerto, Spain (LEVC) 39-30N 000-28W 62M
Feb 20, 2019 - 06:30 PM EST / 2019.02.20 2330 UTC
Wind: from the W (280 degrees) at 3 MPH (3 KT):0
Visibility: greater than 7 mile(s):0
Sky conditions: mostly cloudy
Temperature: 46 F (8 C)
Dew Point: 42 F (6 C)
Relative Humidity: 87%
Pressure (altimeter): 30.36 in. Hg (1028 hPa)
ob: LEVC 202330Z 28003KT 9999 BKN025 08/06 Q1028 NOSIG
cycle: 23

Station Type Date Time Source
LEVC TAF 2019/02/20 18:27 UTC NOAA

TAF TAF LEVC 201700Z 2018/2118 11006KT 9999 FEW030 TX18/2113Z TN02/2106Z
BECMG 2018/2021 30005KT
BECMG 2109/2111 11005KT


Example: see airport list